Time;durP1;ratioP1;P1;durP2;ratioP2;P2;SDS_P1;SDS_P2;PMS_P1;PMS_P2;Temp;Humidity;BMP_temperature;BMP_pressure;BME280_temperature;BME280_humidity;BME280_pressure;Samples;Min_cycle;Max_cycle;Signal;HPM_P1;HPM_P2
2022/05/20 00:01:12;;;;;;;;;;;13.10;89.30;;;;;;5032577;28;19905;-61
2022/05/20 00:03:39;;;;;;;;;;;13.40;86.10;;;;;;5032516;28;20413;-62
2022/05/20 00:06:06;;;;;;;;;;;13.60;87.60;;;;;;5032362;28;19966;-62
2022/05/20 00:08:32;;;;;;;;;;;13.70;84.70;;;;;;5032233;28;20035;-62
2022/05/20 00:10:59;;;;;;;;;;;13.90;84.20;;;;;;5031163;28;19912;-61
2022/05/20 00:13:28;;;;;;;;;;;14.10;84.80;;;;;;5032708;28;19956;-62
2022/05/20 00:15:54;;;;;;;;;;;14.30;83.60;;;;;;5030830;28;19984;-61
2022/05/20 00:18:21;;;;;;;;;;;14.50;82.70;;;;;;5031418;28;20314;-62
2022/05/20 00:20:48;;;;;;;;;;;14.70;81.30;;;;;;5031310;28;19909;-62
2022/05/20 00:23:15;;;;;;;;;;;14.80;81.40;;;;;;5032121;28;20331;-62
2022/05/20 00:25:47;;;;;;;;;;;14.90;78.10;;;;;;5031669;28;20675;-62
2022/05/20 00:28:21;;;;;;;;;;;14.90;79.70;;;;;;5031801;28;19905;-62
2022/05/20 00:30:50;;;;;;;;;;;14.90;78.60;;;;;;5032465;28;19999;-61
2022/05/20 00:33:16;;;;;;;;;;;15.00;80.10;;;;;;5031772;28;19913;-61
2022/05/20 00:35:45;;;;;;;;;;;15.10;78.40;;;;;;5019273;28;19963;-62
2022/05/20 00:38:12;;;;;;;;;;;15.20;78.40;;;;;;5010886;28;20540;-61
2022/05/20 00:40:39;;;;;;;;;;;15.40;80.00;;;;;;5010751;28;19913;-62
2022/05/20 00:43:14;;;;;;;;;;;15.50;77.80;;;;;;5023735;28;20357;-62
2022/05/20 00:45:42;;;;;;;;;;;15.70;79.20;;;;;;5028167;28;20365;-62
2022/05/20 00:48:08;;;;;;;;;;;15.80;78.10;;;;;;5024148;28;19909;-62
2022/05/20 00:50:38;;;;;;;;;;;15.80;76.10;;;;;;5013521;28;19909;-62
2022/05/20 00:53:06;;;;;;;;;;;15.90;78.70;;;;;;5030142;28;20379;-61
2022/05/20 00:55:33;;;;;;;;;;;16.10;76.70;;;;;;5031558;28;19916;-62
2022/05/20 00:58:07;;;;;;;;;;;16.10;74.50;;;;;;5027574;28;20026;-62
2022/05/20 01:00:37;;;;;;;;;;;16.10;75.00;;;;;;5024683;28;20585;-62
2022/05/20 01:03:04;;;;;;;;;;;16.00;75.70;;;;;;5028676;28;19905;-62
2022/05/20 01:05:34;;;;;;;;;;;16.10;76.60;;;;;;5026457;28;20370;-62
2022/05/20 01:08:01;;;;;;;;;;;16.20;75.60;;;;;;5025068;28;19921;-63
2022/05/20 01:10:27;;;;;;;;;;;16.30;74.10;;;;;;5018705;28;20486;-62
2022/05/20 01:12:56;;;;;;;;;;;16.40;71.90;;;;;;5018368;28;19916;-64
2022/05/20 01:15:22;;;;;;;;;;;16.50;73.90;;;;;;5027241;28;19920;-64
2022/05/20 01:17:52;;;;;;;;;;;16.50;73.90;;;;;;5012548;28;19996;-62
2022/05/20 01:20:38;;;;;;;;;;;16.60;73.30;;;;;;5019742;28;19917;-61
2022/05/20 01:23:07;;;;;;;;;;;16.60;74.20;;;;;;5021197;28;20401;-62
2022/05/20 01:25:34;;;;;;;;;;;16.70;74.90;;;;;;5024573;28;19920;-62
2022/05/20 01:28:00;;;;;;;;;;;16.70;75.60;;;;;;5021059;28;19948;-63
2022/05/20 01:30:28;;;;;;;;;;;16.70;73.80;;;;;;5022204;28;19909;-62
2022/05/20 01:32:55;;;;;;;;;;;16.50;73.70;;;;;;5016786;28;19916;-62
2022/05/20 01:35:28;;;;;;;;;;;16.60;74.90;;;;;;5025718;28;19909;-62
2022/05/20 01:37:54;;;;;;;;;;;16.50;74.50;;;;;;5013466;28;20373;-63
2022/05/20 01:40:21;;;;;;;;;;;16.50;75.10;;;;;;5024743;28;19917;-62
2022/05/20 01:42:57;;;;;;;;;;;16.60;76.10;;;;;;5021007;28;20003;-62
2022/05/20 01:45:29;;;;;;;;;;;16.80;75.30;;;;;;5015225;28;19909;-62
2022/05/20 01:48:04;;;;;;;;;;;16.70;76.00;;;;;;5013403;28;19912;-62
2022/05/20 01:50:38;;;;;;;;;;;16.70;76.30;;;;;;5021059;28;19924;-62
2022/05/20 01:53:07;;;;;;;;;;;16.60;78.00;;;;;;5022681;28;19905;-60
2022/05/20 01:55:37;;;;;;;;;;;16.50;77.70;;;;;;5013098;28;20051;-62
2022/05/20 01:58:25;;;;;;;;;;;16.60;75.50;;;;;;5026517;28;20362;-61
2022/05/20 02:00:56;;;;;;;;;;;16.60;76.30;;;;;;5019371;28;19917;-63
2022/05/20 02:03:27;;;;;;;;;;;16.50;76.10;;;;;;5016496;28;19908;-61
2022/05/20 02:05:56;;;;;;;;;;;16.40;77.30;;;;;;5025416;28;19996;-62
2022/05/20 02:08:40;;;;;;;;;;;16.30;77.60;;;;;;5026128;28;20277;-62
2022/05/20 02:11:10;;;;;;;;;;;16.10;79.60;;;;;;5018150;28;20285;-61
2022/05/20 02:13:39;;;;;;;;;;;16.10;80.70;;;;;;5025317;28;20277;-62
2022/05/20 02:16:11;;;;;;;;;;;16.00;78.90;;;;;;5019073;28;19909;-62
2022/05/20 02:18:44;;;;;;;;;;;16.00;77.70;;;;;;5015535;28;19910;-61
2022/05/20 02:21:12;;;;;;;;;;;16.10;78.20;;;;;;5020767;28;19913;-61
2022/05/20 02:23:42;;;;;;;;;;;16.10;78.50;;;;;;5027087;28;20015;-61
2022/05/20 02:26:10;;;;;;;;;;;16.00;79.20;;;;;;5027818;28;19905;-61
2022/05/20 02:28:39;;;;;;;;;;;16.10;78.80;;;;;;5023328;28;20373;-62
2022/05/20 02:31:08;;;;;;;;;;;16.20;78.70;;;;;;5025440;28;19908;-61
2022/05/20 02:33:35;;;;;;;;;;;16.30;77.40;;;;;;5024131;28;19924;-62
2022/05/20 02:36:07;;;;;;;;;;;16.30;77.80;;;;;;5014043;28;20341;-62
2022/05/20 02:38:34;;;;;;;;;;;16.30;77.60;;;;;;5025655;28;20624;-62
2022/05/20 02:41:00;;;;;;;;;;;16.30;77.60;;;;;;5028677;28;20389;-62
2022/05/20 02:43:27;;;;;;;;;;;16.30;77.40;;;;;;5023754;28;20234;-61
2022/05/20 02:45:54;;;;;;;;;;;16.20;77.50;;;;;;5019981;28;19909;-61
2022/05/20 02:48:21;;;;;;;;;;;16.20;77.20;;;;;;5013533;28;19933;-61
2022/05/20 02:50:49;;;;;;;;;;;16.20;77.70;;;;;;5020607;28;19909;-64
2022/05/20 02:53:16;;;;;;;;;;;16.30;76.80;;;;;;5017582;28;19909;-60
2022/05/20 02:55:42;;;;;;;;;;;16.30;75.90;;;;;;5013393;28;20476;-60
2022/05/20 03:04:09;;;;;;;;;;;16.40;76.50;;;;;;5016974;28;19909;-61
2022/05/20 03:06:28;;;;;;;;;;;16.40;76.40;;;;;;5018698;28;20020;-63
2022/05/20 03:08:55;;;;;;;;;;;16.40;77.00;;;;;;5018943;28;20365;-62
2022/05/20 03:11:21;;;;;;;;;;;16.50;76.20;;;;;;5027542;28;19909;-61
2022/05/20 03:13:48;;;;;;;;;;;16.60;76.00;;;;;;5010639;28;19912;-61
2022/05/20 03:16:15;;;;;;;;;;;16.60;76.40;;;;;;5020710;28;19963;-61
2022/05/20 03:18:41;;;;;;;;;;;16.70;74.90;;;;;;5023231;28;19924;-61
2022/05/20 03:21:08;;;;;;;;;;;16.80;75.70;;;;;;5043531;28;19916;-61
2022/05/20 03:23:34;;;;;;;;;;;16.90;75.00;;;;;;5021130;28;19909;-61
2022/05/20 03:26:04;;;;;;;;;;;16.90;73.80;;;;;;5018515;28;19936;-61
2022/05/20 03:28:33;;;;;;;;;;;16.80;75.20;;;;;;5017874;28;19910;-61
2022/05/20 03:31:07;;;;;;;;;;;16.70;75.60;;;;;;5022820;28;19921;-61
2022/05/20 03:33:34;;;;;;;;;;;16.70;75.90;;;;;;5019461;28;19919;-62
2022/05/20 03:36:01;;;;;;;;;;;16.70;74.90;;;;;;5013522;28;19924;-61
2022/05/20 03:38:27;;;;;;;;;;;16.80;75.50;;;;;;5015465;28;19912;-63
2022/05/20 03:40:54;;;;;;;;;;;16.90;75.20;;;;;;5026260;28;19916;-63
2022/05/20 03:43:21;;;;;;;;;;;17.10;75.20;;;;;;5025788;28;19913;-62
2022/05/20 03:45:47;;;;;;;;;;;17.20;74.00;;;;;;5014473;28;20003;-62
2022/05/20 03:48:14;;;;;;;;;;;17.30;74.70;;;;;;5031347;28;19920;-62
2022/05/20 03:50:41;;;;;;;;;;;17.50;73.50;;;;;;5022574;28;19912;-63
2022/05/20 03:53:07;;;;;;;;;;;17.60;72.50;;;;;;5026138;28;19905;-62
2022/05/20 03:55:34;;;;;;;;;;;17.70;72.10;;;;;;5020694;28;20008;-62
2022/05/20 03:58:01;;;;;;;;;;;17.60;71.50;;;;;;5028292;28;20020;-61
2022/05/20 04:00:28;;;;;;;;;;;17.60;71.50;;;;;;5029233;28;20385;-61
2022/05/20 04:02:54;;;;;;;;;;;17.60;71.80;;;;;;5027939;28;19920;-60
2022/05/20 04:05:21;;;;;;;;;;;17.70;70.90;;;;;;5032079;28;19915;-61
2022/05/20 04:07:48;;;;;;;;;;;17.60;71.50;;;;;;5020949;28;19917;-61
2022/05/20 04:10:14;;;;;;;;;;;17.40;71.80;;;;;;5025529;28;19919;-60
2022/05/20 04:12:42;;;;;;;;;;;17.40;72.60;;;;;;5023582;28;19975;-61
2022/05/20 04:15:10;;;;;;;;;;;17.40;73.10;;;;;;5024666;28;19915;-61
2022/05/20 04:17:37;;;;;;;;;;;17.40;72.20;;;;;;5027026;28;19916;-61
2022/05/20 04:20:04;;;;;;;;;;;17.50;72.00;;;;;;5024311;28;19923;-61
2022/05/20 04:22:33;;;;;;;;;;;17.40;72.20;;;;;;5030133;28;19982;-61
2022/05/20 04:24:59;;;;;;;;;;;17.40;72.40;;;;;;5021469;28;19921;-60
2022/05/20 04:27:30;;;;;;;;;;;17.30;72.20;;;;;;5016954;28;20369;-59
2022/05/20 04:29:57;;;;;;;;;;;17.20;72.50;;;;;;5024287;28;20004;-60
2022/05/20 04:32:24;;;;;;;;;;;17.10;72.50;;;;;;5030195;28;19909;-60
2022/05/20 04:34:50;;;;;;;;;;;17.10;72.20;;;;;;5030405;28;20289;-60
2022/05/20 04:37:17;;;;;;;;;;;17.00;72.20;;;;;;5026135;28;20277;-60
2022/05/20 04:39:43;;;;;;;;;;;17.10;72.70;;;;;;5024895;28;19917;-61
2022/05/20 04:47:43;;;;;;;;;;;17.20;74.30;;;;;;5025579;28;19970;-61
2022/05/20 04:50:10;;;;;;;;;;;17.30;73.80;;;;;;5014631;28;20401;-61
2022/05/20 04:52:37;;;;;;;;;;;17.30;73.50;;;;;;5028821;28;19915;-62
2022/05/20 04:55:04;;;;;;;;;;;17.20;73.30;;;;;;5016215;28;19909;-61
2022/05/20 04:57:31;;;;;;;;;;;17.20;74.10;;;;;;5017235;28;19952;-61
2022/05/20 04:59:59;;;;;;;;;;;17.20;74.40;;;;;;5020755;28;19999;-61
2022/05/20 05:02:26;;;;;;;;;;;17.20;74.30;;;;;;5022340;28;20003;-61
2022/05/20 05:04:53;;;;;;;;;;;17.10;74.20;;;;;;5016559;28;20399;-64
2022/05/20 05:07:20;;;;;;;;;;;17.10;75.10;;;;;;5024383;28;20006;-61
2022/05/20 05:09:47;;;;;;;;;;;17.00;76.10;;;;;;5018567;28;19913;-61
2022/05/20 05:12:17;;;;;;;;;;;17.00;75.60;;;;;;5020871;28;19929;-61
2022/05/20 05:14:45;;;;;;;;;;;16.90;76.00;;;;;;5021489;28;19909;-61
2022/05/20 05:17:12;;;;;;;;;;;16.80;76.40;;;;;;5023460;28;19909;-61
2022/05/20 05:19:41;;;;;;;;;;;16.80;76.80;;;;;;5027157;28;19943;-61
2022/05/20 05:22:08;;;;;;;;;;;16.80;77.30;;;;;;5016278;28;20477;-61
2022/05/20 05:24:35;;;;;;;;;;;16.70;78.50;;;;;;5030732;28;19991;-62
2022/05/20 05:27:02;;;;;;;;;;;16.70;79.30;;;;;;5021268;28;20281;-61
2022/05/20 05:29:29;;;;;;;;;;;16.60;80.00;;;;;;5022348;28;19912;-61
2022/05/20 05:31:55;;;;;;;;;;;16.60;80.60;;;;;;5022588;28;19913;-61
2022/05/20 05:34:22;;;;;;;;;;;16.50;79.90;;;;;;5022388;28;19971;-61
2022/05/20 05:36:48;;;;;;;;;;;16.50;80.00;;;;;;5026876;28;19905;-61
2022/05/20 05:39:15;;;;;;;;;;;16.50;79.50;;;;;;5023709;28;19928;-61
2022/05/20 05:41:42;;;;;;;;;;;16.40;78.10;;;;;;5025166;28;19919;-59
2022/05/20 05:44:08;;;;;;;;;;;16.40;79.80;;;;;;5026969;28;19909;-60
2022/05/20 05:46:35;;;;;;;;;;;16.30;79.10;;;;;;5027369;28;19909;-60
2022/05/20 05:49:03;;;;;;;;;;;16.30;78.50;;;;;;5017662;28;20012;-60
2022/05/20 05:51:30;;;;;;;;;;;16.20;79.50;;;;;;5016678;28;20658;-60
2022/05/20 05:53:57;;;;;;;;;;;16.10;79.20;;;;;;5026345;28;19906;-61
2022/05/20 05:56:23;;;;;;;;;;;16.10;79.50;;;;;;5017852;28;19958;-63
2022/05/20 05:58:50;;;;;;;;;;;16.00;79.50;;;;;;5021049;28;19913;-61
2022/05/20 06:01:17;;;;;;;;;;;16.00;79.50;;;;;;5025048;28;19916;-61
2022/05/20 06:03:44;;;;;;;;;;;16.00;79.60;;;;;;5017235;28;20701;-60
2022/05/20 06:06:11;;;;;;;;;;;15.90;80.20;;;;;;5027978;28;19962;-62
2022/05/20 06:08:38;;;;;;;;;;;15.80;81.20;;;;;;5019368;28;19918;-61
2022/05/20 06:11:05;;;;;;;;;;;15.80;82.60;;;;;;5019090;28;19913;-61
2022/05/20 06:13:35;;;;;;;;;;;15.80;84.50;;;;;;5017376;28;19905;-60
2022/05/20 06:16:02;;;;;;;;;;;15.70;85.90;;;;;;5027713;28;20370;-60
2022/05/20 06:18:28;;;;;;;;;;;15.70;86.30;;;;;;5028222;28;19917;-61
2022/05/20 06:20:55;;;;;;;;;;;15.70;86.60;;;;;;5027687;28;19923;-61
2022/05/20 06:23:22;;;;;;;;;;;15.60;85.90;;;;;;5027623;28;19912;-61
2022/05/20 06:25:49;;;;;;;;;;;15.50;85.60;;;;;;5024156;28;19909;-60
2022/05/20 06:28:16;;;;;;;;;;;15.50;84.60;;;;;;5026730;28;19905;-60
2022/05/20 06:30:43;;;;;;;;;;;15.40;85.20;;;;;;5020146;28;19916;-61
2022/05/20 06:33:10;;;;;;;;;;;15.40;86.30;;;;;;5021720;28;19909;-61
2022/05/20 06:41:07;;;;;;;;;;;15.20;90.20;;;;;;5016934;28;20438;-60
2022/05/20 06:43:33;;;;;;;;;;;15.10;90.50;;;;;;5022413;28;19913;-60
2022/05/20 06:46:02;;;;;;;;;;;15.00;90.50;;;;;;5014818;28;19952;-60
2022/05/20 06:48:37;;;;;;;;;;;14.90;90.70;;;;;;5022820;28;19913;-60
2022/05/20 06:51:05;;;;;;;;;;;14.70;91.00;;;;;;5019271;28;19909;-60
2022/05/20 06:53:32;;;;;;;;;;;14.60;91.00;;;;;;5021793;28;20357;-61
2022/05/20 06:55:58;;;;;;;;;;;14.50;91.20;;;;;;5021764;28;19955;-61
2022/05/20 06:58:25;;;;;;;;;;;14.40;91.50;;;;;;5020151;28;19960;-61
2022/05/20 07:00:52;;;;;;;;;;;14.30;91.40;;;;;;5018056;28;19921;-60
2022/05/20 07:03:20;;;;;;;;;;;14.20;91.40;;;;;;5022248;28;20007;-60
2022/05/20 07:05:47;;;;;;;;;;;14.10;91.70;;;;;;5016193;28;20361;-60
2022/05/20 07:08:13;;;;;;;;;;;14.00;91.70;;;;;;5023916;28;20385;-60
2022/05/20 07:10:40;;;;;;;;;;;13.90;91.90;;;;;;5022731;28;19913;-60
2022/05/20 07:13:07;;;;;;;;;;;13.80;92.00;;;;;;5020916;28;19909;-60
2022/05/20 07:15:34;;;;;;;;;;;13.70;92.10;;;;;;5013602;28;19909;-61
2022/05/20 07:18:00;;;;;;;;;;;13.60;92.30;;;;;;5018856;28;19917;-61
2022/05/20 07:20:27;;;;;;;;;;;13.60;92.50;;;;;;5021186;28;20013;-61
2022/05/20 07:22:53;;;;;;;;;;;13.50;92.70;;;;;;5018807;28;20639;-61
2022/05/20 07:25:20;;;;;;;;;;;13.50;92.70;;;;;;5024647;28;20274;-61
2022/05/20 07:27:47;;;;;;;;;;;13.50;92.90;;;;;;5023029;28;19996;-62
2022/05/20 07:30:14;;;;;;;;;;;13.50;93.20;;;;;;5018504;28;20381;-61
2022/05/20 07:32:40;;;;;;;;;;;13.50;93.50;;;;;;5016278;28;20277;-62
2022/05/20 07:35:09;;;;;;;;;;;13.50;93.70;;;;;;5012201;28;20012;-62
2022/05/20 07:37:37;;;;;;;;;;;13.50;93.70;;;;;;5026548;28;20003;-62
2022/05/20 07:40:04;;;;;;;;;;;13.60;93.40;;;;;;5021062;28;19925;-62
2022/05/20 07:42:31;;;;;;;;;;;13.60;93.40;;;;;;5023083;28;19960;-62
2022/05/20 07:44:58;;;;;;;;;;;13.60;93.10;;;;;;5019580;28;19913;-62
2022/05/20 07:47:26;;;;;;;;;;;13.50;92.80;;;;;;5022099;28;20400;-62
2022/05/20 07:49:52;;;;;;;;;;;13.40;93.00;;;;;;5025092;28;20009;-60
2022/05/20 07:55:07;;;;;;;;;;;13.40;93.40;;;;;;5022532;28;19909;-60
2022/05/20 07:57:33;;;;;;;;;;;13.40;93.60;;;;;;5020748;28;19909;-61
2022/05/20 08:00:02;;;;;;;;;;;13.40;93.70;;;;;;5028367;28;20381;-61
2022/05/20 08:02:29;;;;;;;;;;;13.50;93.70;;;;;;5023137;28;19941;-62
2022/05/20 08:04:57;;;;;;;;;;;13.60;93.70;;;;;;5012848;28;19906;-61
2022/05/20 08:07:26;;;;;;;;;;;13.60;93.70;;;;;;5012885;28;20370;-61
2022/05/20 08:09:53;;;;;;;;;;;13.70;93.60;;;;;;5028470;28;19906;-60
2022/05/20 08:12:20;;;;;;;;;;;13.70;93.70;;;;;;5012429;28;20339;-61
2022/05/20 08:14:46;;;;;;;;;;;13.80;93.60;;;;;;5015487;28;19975;-61
2022/05/20 08:17:13;;;;;;;;;;;13.70;93.80;;;;;;5031113;28;19970;-63
2022/05/20 08:19:40;;;;;;;;;;;13.60;93.50;;;;;;5031949;28;19917;-62
2022/05/20 08:22:06;;;;;;;;;;;13.60;95.20;;;;;;5031439;28;20365;-62
2022/05/20 08:24:33;;;;;;;;;;;13.50;95.30;;;;;;5030447;28;19909;-62
2022/05/20 08:27:00;;;;;;;;;;;13.40;95.40;;;;;;5026289;28;19913;-62
2022/05/20 08:29:26;;;;;;;;;;;13.40;95.50;;;;;;5032035;28;19955;-62
2022/05/20 08:31:53;;;;;;;;;;;13.30;96.00;;;;;;5030819;28;19995;-62
2022/05/20 08:34:19;;;;;;;;;;;13.30;96.20;;;;;;5031994;28;19909;-62
2022/05/20 08:36:46;;;;;;;;;;;13.20;96.30;;;;;;5030955;28;19916;-61
2022/05/20 08:39:14;;;;;;;;;;;13.30;96.60;;;;;;5018639;28;19928;-61
2022/05/20 08:41:51;;;;;;;;;;;13.20;96.60;;;;;;5029639;28;19924;-61
2022/05/20 08:44:19;;;;;;;;;;;13.20;96.70;;;;;;5029618;28;19937;-61
2022/05/20 08:46:46;;;;;;;;;;;13.20;96.80;;;;;;5028744;28;19908;-61
2022/05/20 08:49:15;;;;;;;;;;;13.20;96.80;;;;;;5029450;28;19917;-60
2022/05/20 08:51:45;;;;;;;;;;;13.20;96.90;;;;;;5024222;28;20329;-60
2022/05/20 08:54:12;;;;;;;;;;;13.20;97.00;;;;;;5028505;28;20052;-59
2022/05/20 08:56:39;;;;;;;;;;;13.20;97.10;;;;;;5029395;28;19917;-60
2022/05/20 08:59:06;;;;;;;;;;;13.10;97.00;;;;;;5029848;28;19921;-61
2022/05/20 09:01:38;;;;;;;;;;;13.10;97.10;;;;;;5029710;28;19917;-60
2022/05/20 09:04:06;;;;;;;;;;;13.10;97.20;;;;;;5027048;28;20365;-60
2022/05/20 09:06:36;;;;;;;;;;;13.10;97.10;;;;;;5027819;28;20011;-61
2022/05/20 09:09:08;;;;;;;;;;;13.10;97.10;;;;;;5028880;28;19917;-61
2022/05/20 09:11:35;;;;;;;;;;;13.10;97.10;;;;;;5024179;28;19998;-60
2022/05/20 09:17:09;;;;;;;;;;;13.00;97.10;;;;;;5028941;28;20292;-61
2022/05/20 09:19:36;;;;;;;;;;;13.00;97.10;;;;;;5028860;28;19917;-61
2022/05/20 09:22:04;;;;;;;;;;;13.00;97.10;;;;;;5028328;28;19921;-61
2022/05/20 09:24:39;;;;;;;;;;;13.00;97.10;;;;;;5026572;28;20374;-62
2022/05/20 09:27:07;;;;;;;;;;;13.00;97.20;;;;;;5024233;28;19913;-62
2022/05/20 09:29:37;;;;;;;;;;;13.00;97.30;;;;;;5027383;28;19951;-61
2022/05/20 09:32:04;;;;;;;;;;;13.00;97.30;;;;;;5028105;28;19944;-61
2022/05/20 09:34:36;;;;;;;;;;;13.00;97.30;;;;;;5028282;28;19913;-61
2022/05/20 09:37:17;;;;;;;;;;;13.00;97.10;;;;;;5028409;28;19913;-61
2022/05/20 09:39:45;;;;;;;;;;;13.00;97.10;;;;;;5027762;28;20383;-62
2022/05/20 09:42:19;;;;;;;;;;;13.00;97.10;;;;;;5027502;28;19909;-62
2022/05/20 09:44:47;;;;;;;;;;;13.00;97.00;;;;;;5024339;28;19996;-62
2022/05/20 09:47:33;;;;;;;;;;;12.90;96.90;;;;;;5008487;28;19909;-62
2022/05/20 09:50:09;;;;;;;;;;;13.00;96.90;;;;;;5014772;28;20393;-62
2022/05/20 09:52:35;;;;;;;;;;;13.00;97.00;;;;;;5026710;28;20386;-62
2022/05/20 09:55:04;;;;;;;;;;;13.00;96.90;;;;;;5012773;28;20000;-62
2022/05/20 09:57:45;;;;;;;;;;;12.90;96.90;;;;;;5017467;28;20440;-62
2022/05/20 10:00:15;;;;;;;;;;;12.90;97.00;;;;;;5027702;28;20301;-62
2022/05/20 10:02:44;;;;;;;;;;;12.90;96.90;;;;;;5025991;28;20007;-62
2022/05/20 10:05:15;;;;;;;;;;;12.90;96.90;;;;;;5025169;28;19913;-61
2022/05/20 10:07:50;;;;;;;;;;;12.90;96.90;;;;;;5027722;28;20289;-62
2022/05/20 10:10:22;;;;;;;;;;;12.80;96.90;;;;;;5013675;28;20554;-62
2022/05/20 10:12:50;;;;;;;;;;;12.80;96.90;;;;;;5023925;28;19917;-62
2022/05/20 10:15:25;;;;;;;;;;;12.80;97.00;;;;;;5027061;28;19912;-62
2022/05/20 10:18:14;;;;;;;;;;;12.80;97.10;;;;;;5027070;28;19909;-62
2022/05/20 10:20:41;;;;;;;;;;;12.80;97.00;;;;;;5012283;28;19913;-62
2022/05/20 10:23:07;;;;;;;;;;;12.80;97.00;;;;;;5009464;28;19937;-62
2022/05/20 10:25:52;;;;;;;;;;;12.80;97.00;;;;;;5026913;28;19944;-63
2022/05/20 10:33:57;;;;;;;;;;;12.70;97.00;;;;;;5027583;28;19919;-62
2022/05/20 10:36:28;;;;;;;;;;;12.70;97.10;;;;;;5027223;28;20507;-61
2022/05/20 10:38:59;;;;;;;;;;;12.70;97.10;;;;;;5027684;28;19962;-61
2022/05/20 10:41:32;;;;;;;;;;;12.70;97.40;;;;;;5027053;28;19987;-61
2022/05/20 10:49:40;;;;;;;;;;;12.50;97.20;;;;;;5026682;28;19943;-62
2022/05/20 10:52:07;;;;;;;;;;;12.40;97.30;;;;;;5026059;28;19913;-61
2022/05/20 10:54:43;;;;;;;;;;;12.40;97.30;;;;;;5027249;28;19966;-62
2022/05/20 10:57:18;;;;;;;;;;;12.40;97.30;;;;;;5029779;28;19913;-62
2022/05/20 10:59:51;;;;;;;;;;;12.30;97.30;;;;;;5031331;28;19913;-62
2022/05/20 11:02:33;;;;;;;;;;;12.20;97.00;;;;;;5030464;28;20005;-62
2022/05/20 11:05:00;;;;;;;;;;;12.10;96.90;;;;;;5027408;28;20445;-62
2022/05/20 11:07:34;;;;;;;;;;;12.10;97.20;;;;;;5030991;28;20373;-61
2022/05/20 11:10:18;;;;;;;;;;;12.00;97.40;;;;;;5031064;28;20004;-61
2022/05/20 11:13:03;;;;;;;;;;;12.10;97.50;;;;;;5027825;28;19909;-61
2022/05/20 11:15:48;;;;;;;;;;;12.10;97.90;;;;;;5030039;28;19913;-61
2022/05/20 11:18:20;;;;;;;;;;;12.10;97.90;;;;;;5030723;28;19920;-62
2022/05/20 11:21:05;;;;;;;;;;;12.20;97.90;;;;;;5025210;28;20591;-62
2022/05/20 11:23:37;;;;;;;;;;;12.20;97.80;;;;;;5030592;28;19913;-62
2022/05/20 11:26:10;;;;;;;;;;;12.20;97.80;;;;;;5030603;28;19909;-62
2022/05/20 11:28:55;;;;;;;;;;;12.20;97.80;;;;;;5028314;28;19955;-62
2022/05/20 11:31:21;;;;;;;;;;;12.20;97.70;;;;;;5030472;28;19956;-62
2022/05/20 11:33:57;;;;;;;;;;;12.20;97.60;;;;;;5030441;28;19913;-62
2022/05/20 11:36:33;;;;;;;;;;;12.20;97.30;;;;;;5011255;28;19968;-62
2022/05/20 11:39:24;;;;;;;;;;;12.20;97.70;;;;;;5018808;28;20703;-62
2022/05/20 11:41:56;;;;;;;;;;;12.20;97.60;;;;;;5027085;28;19913;-62
2022/05/20 11:44:39;;;;;;;;;;;12.20;97.70;;;;;;5030219;28;19917;-62
2022/05/20 11:47:25;;;;;;;;;;;12.20;97.70;;;;;;5029683;28;19913;-62
2022/05/20 11:49:52;;;;;;;;;;;12.20;97.50;;;;;;5030049;28;19909;-62
2022/05/20 11:52:28;;;;;;;;;;;12.20;97.70;;;;;;5028495;28;19966;-62
2022/05/20 11:54:57;;;;;;;;;;;12.30;97.70;;;;;;5030397;28;20377;-62
2022/05/20 11:57:26;;;;;;;;;;;12.30;97.70;;;;;;5029495;28;19916;-62
2022/05/20 12:00:05;;;;;;;;;;;12.30;97.70;;;;;;5030180;28;19921;-62
2022/05/20 12:02:33;;;;;;;;;;;12.30;97.70;;;;;;5028794;28;19952;-62
2022/05/20 12:05:00;;;;;;;;;;;12.20;97.50;;;;;;5029561;28;19916;-62
2022/05/20 12:07:27;;;;;;;;;;;12.20;97.50;;;;;;5030577;28;19963;-62
2022/05/20 12:09:55;;;;;;;;;;;12.20;97.60;;;;;;5029975;28;19944;-61
2022/05/20 12:12:23;;;;;;;;;;;12.30;97.70;;;;;;5030035;28;19999;-61
2022/05/20 12:15:08;;;;;;;;;;;12.30;97.80;;;;;;5029509;28;19967;-61
2022/05/20 12:17:37;;;;;;;;;;;12.30;97.70;;;;;;5029297;28;20202;-61
2022/05/20 12:25:52;;;;;;;;;;;12.30;97.60;;;;;;5029805;28;19933;-62
2022/05/20 12:28:22;;;;;;;;;;;12.30;97.70;;;;;;5029718;28;19905;-61
2022/05/20 12:31:01;;;;;;;;;;;12.30;97.70;;;;;;5029162;28;19912;-61
2022/05/20 12:33:47;;;;;;;;;;;12.30;97.60;;;;;;5029688;28;19959;-61
2022/05/20 12:36:20;;;;;;;;;;;12.20;97.60;;;;;;5024210;28;19913;-62
2022/05/20 12:38:47;;;;;;;;;;;12.20;97.60;;;;;;5028192;28;19920;-61
2022/05/20 12:41:20;;;;;;;;;;;12.20;97.60;;;;;;5024468;28;19921;-61
2022/05/20 12:43:49;;;;;;;;;;;12.20;97.60;;;;;;5028551;28;19979;-61
2022/05/20 12:46:23;;;;;;;;;;;12.20;97.60;;;;;;5024825;28;19913;-61
2022/05/20 12:48:53;;;;;;;;;;;12.20;97.60;;;;;;5024690;28;19917;-61
2022/05/20 12:51:21;;;;;;;;;;;12.20;97.60;;;;;;5026787;28;19921;-61
2022/05/20 12:53:47;;;;;;;;;;;12.20;97.70;;;;;;5017184;28;19913;-61
2022/05/20 12:56:30;;;;;;;;;;;12.20;97.70;;;;;;5024388;28;19913;-62
2022/05/20 12:59:13;;;;;;;;;;;12.20;97.70;;;;;;5021889;28;19909;-61
2022/05/20 13:01:43;;;;;;;;;;;12.20;97.70;;;;;;5018894;28;19959;-61
2022/05/20 13:04:12;;;;;;;;;;;12.10;97.50;;;;;;5017368;28;19909;-61
2022/05/20 13:06:42;;;;;;;;;;;12.10;97.60;;;;;;5026329;28;20015;-61
2022/05/20 13:09:09;;;;;;;;;;;12.00;97.60;;;;;;5025057;28;19920;-61
2022/05/20 13:11:40;;;;;;;;;;;12.00;97.70;;;;;;5023972;28;19916;-61
2022/05/20 13:14:10;;;;;;;;;;;12.00;97.80;;;;;;5027885;28;19955;-61
2022/05/20 13:16:38;;;;;;;;;;;11.90;97.80;;;;;;5026437;28;19919;-61
2022/05/20 13:19:10;;;;;;;;;;;11.90;97.90;;;;;;5026968;28;19983;-61
2022/05/20 13:21:39;;;;;;;;;;;11.90;98.00;;;;;;5025201;28;19940;-62
2022/05/20 13:24:13;;;;;;;;;;;12.00;98.10;;;;;;5026954;28;19909;-61
2022/05/20 13:26:41;;;;;;;;;;;12.00;98.20;;;;;;5026479;28;19913;-61
2022/05/20 13:29:13;;;;;;;;;;;12.00;98.20;;;;;;5026218;28;20372;-62
2022/05/20 13:31:40;;;;;;;;;;;12.10;98.20;;;;;;5026650;28;19913;-61
2022/05/20 13:34:07;;;;;;;;;;;12.10;98.00;;;;;;5015663;28;19909;-62
2022/05/20 13:36:40;;;;;;;;;;;12.00;97.90;;;;;;5029029;28;20246;-62
2022/05/20 13:39:07;;;;;;;;;;;12.00;98.00;;;;;;5026653;28;19963;-61
2022/05/20 13:41:34;;;;;;;;;;;12.10;98.00;;;;;;5027035;28;19931;-62
2022/05/20 13:44:02;;;;;;;;;;;12.10;98.00;;;;;;5025741;28;20934;-62
2022/05/20 13:49:16;;;;;;;;;;;12.10;98.00;;;;;;5023890;28;19940;-62
2022/05/20 13:51:50;;;;;;;;;;;12.20;98.00;;;;;;5028634;28;19932;-61
2022/05/20 13:54:18;;;;;;;;;;;12.20;98.00;;;;;;5022726;28;19932;-61
2022/05/20 13:56:47;;;;;;;;;;;12.20;98.10;;;;;;5021795;28;19955;-61
2022/05/20 13:59:41;;;;;;;;;;;12.30;98.10;;;;;;5027680;28;19982;-61
2022/05/20 14:02:11;;;;;;;;;;;12.30;98.10;;;;;;5023507;28;19917;-61
2022/05/20 14:04:45;;;;;;;;;;;12.30;98.10;;;;;;5025218;28;19913;-61
2022/05/20 14:07:16;;;;;;;;;;;12.30;98.20;;;;;;5025225;28;19917;-61
2022/05/20 14:09:45;;;;;;;;;;;12.30;98.20;;;;;;5030158;28;20388;-61
2022/05/20 14:12:17;;;;;;;;;;;12.30;98.20;;;;;;5015770;28;19913;-62
2022/05/20 14:14:46;;;;;;;;;;;12.30;98.20;;;;;;5015734;28;19936;-61
2022/05/20 14:17:13;;;;;;;;;;;12.30;98.20;;;;;;5011381;28;19988;-62
2022/05/20 14:19:42;;;;;;;;;;;12.20;98.20;;;;;;5030368;28;19909;-62
2022/05/20 14:22:17;;;;;;;;;;;12.20;98.20;;;;;;5029799;28;19914;-62
2022/05/20 14:24:52;;;;;;;;;;;12.20;98.20;;;;;;5027507;28;20004;-62
2022/05/20 14:27:30;;;;;;;;;;;12.20;98.30;;;;;;5027266;28;19952;-62
2022/05/20 14:30:13;;;;;;;;;;;12.10;98.20;;;;;;5022377;28;19917;-62
2022/05/20 14:32:39;;;;;;;;;;;12.20;98.30;;;;;;5010435;28;20307;-62
2022/05/20 14:35:06;;;;;;;;;;;12.10;98.30;;;;;;5018583;28;19905;-62
2022/05/20 14:37:34;;;;;;;;;;;12.10;98.40;;;;;;5029751;28;19963;-62
2022/05/20 14:40:03;;;;;;;;;;;12.10;98.40;;;;;;5029785;28;19917;-62
2022/05/20 14:42:30;;;;;;;;;;;12.10;98.50;;;;;;5029996;28;20281;-62
2022/05/20 14:44:58;;;;;;;;;;;12.10;98.50;;;;;;5030435;28;19912;-61
2022/05/20 14:47:30;;;;;;;;;;;12.00;98.50;;;;;;5019063;28;20313;-61
2022/05/20 14:50:13;;;;;;;;;;;12.10;98.50;;;;;;5010658;28;19905;-61
2022/05/20 14:52:44;;;;;;;;;;;12.00;98.40;;;;;;5021208;28;19917;-61
2022/05/20 14:55:37;;;;;;;;;;;12.00;98.40;;;;;;5029322;28;19963;-62
2022/05/20 14:58:05;;;;;;;;;;;12.00;98.30;;;;;;5027582;28;20016;-62
2022/05/20 15:00:32;;;;;;;;;;;11.90;98.20;;;;;;5029586;28;19917;-62
2022/05/20 15:03:00;;;;;;;;;;;11.90;98.20;;;;;;5028869;28;20293;-62
2022/05/20 15:05:29;;;;;;;;;;;11.90;98.20;;;;;;5029311;28;19951;-61
2022/05/20 15:08:10;;;;;;;;;;;11.90;98.20;;;;;;5027838;28;19917;-63
2022/05/20 15:10:36;;;;;;;;;;;11.80;98.20;;;;;;5027638;28;19932;-62
2022/05/20 15:13:03;;;;;;;;;;;11.80;98.30;;;;;;5021735;28;19913;-61